Aviation Digital Data Service (ADDS)

Output produced by METARs form (1912 UTC 19 August 2019)
found at http://www.aviationweather.gov/metar/data/
 
METAR text: LFSB 191900Z 12004KT 9999 FEW030 FEW046CB BKN061 BKN090 19/17 Q1020 NOSIG
Conditions at: LFSB (BALE/MULHOUSE , FR) observed 1900 UTC 19 August 2019
Temperature: 19.0°C (66°F)
Dewpoint: 17.0°C (63°F) [RH = 88%]
Pressure (altimeter): 30.12 inches Hg (1020.0 mb)
Winds: from the ESE (120 degrees) at 5 MPH (4 knots; 2.1 m/s)
Visibility: 6 or more miles (10+ km)
Ceiling: 6100 feet AGL
Clouds: few clouds at 3000 feet AGL
few clouds at 4600 feet AGL
broken clouds at 6100 feet AGL
broken clouds at 9000 feet AGL
Weather: no significant weather observed at this time

METAR text: LFSB 191830Z 11003KT 080V160 9999 FEW023 FEW046CB BKN056 19/17 Q1020 NOSIG
Conditions at: LFSB (BALE/MULHOUSE , FR) observed 1830 UTC 19 August 2019
Temperature: 19.0°C (66°F)
Dewpoint: 17.0°C (63°F) [RH = 88%]
Pressure (altimeter): 30.12 inches Hg (1020.0 mb)
Winds: from the ESE (110 degrees) at 3 MPH (3 knots; 1.5 m/s)
Visibility: 6 or more miles (10+ km)
Ceiling: 5600 feet AGL
Clouds: few clouds at 2300 feet AGL
few clouds at 4600 feet AGL
broken clouds at 5600 feet AGL
Weather: no significant weather observed at this time

METAR text: LFSB 191800Z 06003KT 9999 FEW020 FEW046CB BKN056 19/17 Q1019 NOSIG
Conditions at: LFSB (BALE/MULHOUSE , FR) observed 1800 UTC 19 August 2019
Temperature: 19.0°C (66°F)
Dewpoint: 17.0°C (63°F) [RH = 88%]
Pressure (altimeter): 30.09 inches Hg (1019.0 mb)
Winds: from the ENE (60 degrees) at 3 MPH (3 knots; 1.5 m/s)
Visibility: 6 or more miles (10+ km)
Ceiling: 5600 feet AGL
Clouds: few clouds at 2000 feet AGL
few clouds at 4600 feet AGL
broken clouds at 5600 feet AGL
Weather: no significant weather observed at this time

METAR text: LFSB 191730Z VRB02KT 9999 FEW016 FEW046CB BKN053 19/17 Q1019 NOSIG
Conditions at: LFSB (BALE/MULHOUSE , FR) observed 1730 UTC 19 August 2019
Temperature: 19.0°C (66°F)
Dewpoint: 17.0°C (63°F) [RH = 88%]
Pressure (altimeter): 30.09 inches Hg (1019.0 mb)
Winds: variable direction winds at 2 MPH (2 knots; 1.0 m/s)
Visibility: 6 or more miles (10+ km)
Ceiling: 5300 feet AGL
Clouds: few clouds at 1600 feet AGL
few clouds at 4600 feet AGL
broken clouds at 5300 feet AGL
Weather: no significant weather observed at this time

METAR text: LFSB 191700Z 16003KT 9999 FEW016 BKN056 19/17 Q1019 NOSIG
Conditions at: LFSB (BALE/MULHOUSE , FR) observed 1700 UTC 19 August 2019
Temperature: 19.0°C (66°F)
Dewpoint: 17.0°C (63°F) [RH = 88%]
Pressure (altimeter): 30.09 inches Hg (1019.0 mb)
Winds: from the SSE (160 degrees) at 3 MPH (3 knots; 1.5 m/s)
Visibility: 6 or more miles (10+ km)
Ceiling: 5600 feet AGL
Clouds: few clouds at 1600 feet AGL
broken clouds at 5600 feet AGL
Weather: no significant weather observed at this time

METAR text: LFSB 191630Z 16005KT 9999 FEW016 SCT046 BKN060 19/16 Q1019 NOSIG
Conditions at: LFSB (BALE/MULHOUSE , FR) observed 1630 UTC 19 August 2019
Temperature: 19.0°C (66°F)
Dewpoint: 16.0°C (61°F) [RH = 83%]
Pressure (altimeter): 30.09 inches Hg (1019.0 mb)
Winds: from the SSE (160 degrees) at 6 MPH (5 knots; 2.6 m/s)
Visibility: 6 or more miles (10+ km)
Ceiling: 6000 feet AGL
Clouds: few clouds at 1600 feet AGL
scattered clouds at 4600 feet AGL
broken clouds at 6000 feet AGL
Weather: no significant weather observed at this time

METAR text: LFSB 191600Z VRB03KT 7000 -RA FEW036 BKN043 BKN056 19/17 Q1020 NOSIG
Conditions at: LFSB (BALE/MULHOUSE , FR) observed 1600 UTC 19 August 2019
Temperature: 19.0°C (66°F)
Dewpoint: 17.0°C (63°F) [RH = 88%]
Pressure (altimeter): 30.12 inches Hg (1020.0 mb)
Winds: variable direction winds at 3 MPH (3 knots; 1.5 m/s)
Visibility: 4 miles ( 7 km)
Ceiling: 4300 feet AGL
Clouds: few clouds at 3600 feet AGL
broken clouds at 4300 feet AGL
broken clouds at 5600 feet AGL
Weather: -RA  (light rain)

METAR text: LFSB 191530Z 24005KT 200V270 9999 -RA FEW033 BKN040 BKN056 19/17 Q1020 NOSIG
Conditions at: LFSB (BALE/MULHOUSE , FR) observed 1530 UTC 19 August 2019
Temperature: 19.0°C (66°F)
Dewpoint: 17.0°C (63°F) [RH = 88%]
Pressure (altimeter): 30.12 inches Hg (1020.0 mb)
Winds: from the WSW (240 degrees) at 6 MPH (5 knots; 2.6 m/s)
Visibility: 6 or more miles (10+ km)
Ceiling: 4000 feet AGL
Clouds: few clouds at 3300 feet AGL
broken clouds at 4000 feet AGL
broken clouds at 5600 feet AGL
Weather: -RA  (light rain)

METAR text: LFSB 191500Z 23004KT 200V260 9999 -RA FEW033 SCT046 OVC053 19/16 Q1020 NOSIG
Conditions at: LFSB (BALE/MULHOUSE , FR) observed 1500 UTC 19 August 2019
Temperature: 19.0°C (66°F)
Dewpoint: 16.0°C (61°F) [RH = 83%]
Pressure (altimeter): 30.12 inches Hg (1020.0 mb)
Winds: from the SW (230 degrees) at 5 MPH (4 knots; 2.1 m/s)
Visibility: 6 or more miles (10+ km)
Ceiling: 5300 feet AGL
Clouds: few clouds at 3300 feet AGL
scattered clouds at 4600 feet AGL
overcast cloud deck at 5300 feet AGL
Weather: -RA  (light rain)

METAR text: LFSB 191430Z 25004KT 170V280 9999 -RA FEW033 BKN046 19/17 Q1020 NOSIG
Conditions at: LFSB (BALE/MULHOUSE , FR) observed 1430 UTC 19 August 2019
Temperature: 19.0°C (66°F)
Dewpoint: 17.0°C (63°F) [RH = 88%]
Pressure (altimeter): 30.12 inches Hg (1020.0 mb)
Winds: from the WSW (250 degrees) at 5 MPH (4 knots; 2.1 m/s)
Visibility: 6 or more miles (10+ km)
Ceiling: 4600 feet AGL
Clouds: few clouds at 3300 feet AGL
broken clouds at 4600 feet AGL
Weather: -RA  (light rain)

METAR text: LFSB 191400Z VRB03KT 9999 FEW033 BKN046 20/18 Q1020 NOSIG
Conditions at: LFSB (BALE/MULHOUSE , FR) observed 1400 UTC 19 August 2019
Temperature: 20.0°C (68°F)
Dewpoint: 18.0°C (64°F) [RH = 88%]
Pressure (altimeter): 30.12 inches Hg (1020.0 mb)
Winds: variable direction winds at 3 MPH (3 knots; 1.5 m/s)
Visibility: 6 or more miles (10+ km)
Ceiling: 4600 feet AGL
Clouds: few clouds at 3300 feet AGL
broken clouds at 4600 feet AGL
Weather: no significant weather observed at this time

METAR text: LFSB 191330Z 22004KT 180V240 9999 FEW028 BKN046 BKN070 19/17 Q1019 NOSIG
Conditions at: LFSB (BALE/MULHOUSE , FR) observed 1330 UTC 19 August 2019
Temperature: 19.0°C (66°F)
Dewpoint: 17.0°C (63°F) [RH = 88%]
Pressure (altimeter): 30.09 inches Hg (1019.0 mb)
Winds: from the SW (220 degrees) at 5 MPH (4 knots; 2.1 m/s)
Visibility: 6 or more miles (10+ km)
Ceiling: 4600 feet AGL
Clouds: few clouds at 2800 feet AGL
broken clouds at 4600 feet AGL
broken clouds at 7000 feet AGL
Weather: no significant weather observed at this time

METAR text: LFSB 191300Z 21007KT 4000 -RA FEW028 BKN045 OVC053 19/17 Q1019 NOSIG
Conditions at: LFSB (BALE/MULHOUSE , FR) observed 1300 UTC 19 August 2019
Temperature: 19.0°C (66°F)
Dewpoint: 17.0°C (63°F) [RH = 88%]
Pressure (altimeter): 30.09 inches Hg (1019.0 mb)
Winds: from the SSW (210 degrees) at 8 MPH (7 knots; 3.6 m/s)
Visibility: 2.49 miles (4.01 km)
Ceiling: 4500 feet AGL
Clouds: few clouds at 2800 feet AGL
broken clouds at 4500 feet AGL
overcast cloud deck at 5300 feet AGL
Weather: -RA  (light rain)

METAR text: LFSB 191230Z 24007KT 9999 FEW033 OVC046 20/17 Q1019 NOSIG
Conditions at: LFSB (BALE/MULHOUSE , FR) observed 1230 UTC 19 August 2019
Temperature: 20.0°C (68°F)
Dewpoint: 17.0°C (63°F) [RH = 83%]
Pressure (altimeter): 30.09 inches Hg (1019.0 mb)
Winds: from the WSW (240 degrees) at 8 MPH (7 knots; 3.6 m/s)
Visibility: 6 or more miles (10+ km)
Ceiling: 4600 feet AGL
Clouds: few clouds at 3300 feet AGL
overcast cloud deck at 4600 feet AGL
Weather: no significant weather observed at this time

METAR text: LFSB 191200Z 22006KT 180V260 9999 FEW033 OVC046 20/17 Q1019 NOSIG
Conditions at: LFSB (BALE/MULHOUSE , FR) observed 1200 UTC 19 August 2019
Temperature: 20.0°C (68°F)
Dewpoint: 17.0°C (63°F) [RH = 83%]
Pressure (altimeter): 30.09 inches Hg (1019.0 mb)
Winds: from the SW (220 degrees) at 7 MPH (6 knots; 3.1 m/s)
Visibility: 6 or more miles (10+ km)
Ceiling: 4600 feet AGL
Clouds: few clouds at 3300 feet AGL
overcast cloud deck at 4600 feet AGL
Weather: no significant weather observed at this time

METAR text: LFSB 191130Z 22005KT 9999 FEW033 OVC052 20/17 Q1019 NOSIG
Conditions at: LFSB (BALE/MULHOUSE , FR) observed 1130 UTC 19 August 2019
Temperature: 20.0°C (68°F)
Dewpoint: 17.0°C (63°F) [RH = 83%]
Pressure (altimeter): 30.09 inches Hg (1019.0 mb)
Winds: from the SW (220 degrees) at 6 MPH (5 knots; 2.6 m/s)
Visibility: 6 or more miles (10+ km)
Ceiling: 5200 feet AGL
Clouds: few clouds at 3300 feet AGL
overcast cloud deck at 5200 feet AGL
Weather: no significant weather observed at this time

METAR text: LFSB 191100Z 20004KT 160V240 9999 FEW033 OVC052 19/17 Q1019 NOSIG
Conditions at: LFSB (BALE/MULHOUSE , FR) observed 1100 UTC 19 August 2019
Temperature: 19.0°C (66°F)
Dewpoint: 17.0°C (63°F) [RH = 88%]
Pressure (altimeter): 30.09 inches Hg (1019.0 mb)
Winds: from the SSW (200 degrees) at 5 MPH (4 knots; 2.1 m/s)
Visibility: 6 or more miles (10+ km)
Ceiling: 5200 feet AGL
Clouds: few clouds at 3300 feet AGL
overcast cloud deck at 5200 feet AGL
Weather: no significant weather observed at this time

METAR text: LFSB 191030Z 23005KT 2000 -RA FEW033 SCT043 OVC050 19/16 Q1019 NOSIG
Conditions at: LFSB (BALE/MULHOUSE , FR) observed 1030 UTC 19 August 2019
Temperature: 19.0°C (66°F)
Dewpoint: 16.0°C (61°F) [RH = 83%]
Pressure (altimeter): 30.09 inches Hg (1019.0 mb)
Winds: from the SW (230 degrees) at 6 MPH (5 knots; 2.6 m/s)
Visibility: 1.24 miles (2.00 km)
Ceiling: 5000 feet AGL
Clouds: few clouds at 3300 feet AGL
scattered clouds at 4300 feet AGL
overcast cloud deck at 5000 feet AGL
Weather: -RA  (light rain)

METAR text: LFSB 191000Z 23005KT 190V270 9999 FEW033 BKN050 19/16 Q1018 NOSIG
Conditions at: LFSB (BALE/MULHOUSE , FR) observed 1000 UTC 19 August 2019
Temperature: 19.0°C (66°F)
Dewpoint: 16.0°C (61°F) [RH = 83%]
Pressure (altimeter): 30.06 inches Hg (1018.0 mb)
Winds: from the SW (230 degrees) at 6 MPH (5 knots; 2.6 m/s)
Visibility: 6 or more miles (10+ km)
Ceiling: 5000 feet AGL
Clouds: few clouds at 3300 feet AGL
broken clouds at 5000 feet AGL
Weather: no significant weather observed at this time

METAR text: LFSB 190930Z 24005KT 9999 FEW030 BKN056 19/16 Q1018 NOSIG
Conditions at: LFSB (BALE/MULHOUSE , FR) observed 0930 UTC 19 August 2019
Temperature: 19.0°C (66°F)
Dewpoint: 16.0°C (61°F) [RH = 83%]
Pressure (altimeter): 30.06 inches Hg (1018.0 mb)
Winds: from the WSW (240 degrees) at 6 MPH (5 knots; 2.6 m/s)
Visibility: 6 or more miles (10+ km)
Ceiling: 5600 feet AGL
Clouds: few clouds at 3000 feet AGL
broken clouds at 5600 feet AGL
Weather: no significant weather observed at this time

METAR text: LFSB 190900Z 22005KT 180V250 9999 FEW030 SCT040 BKN043 19/16 Q1018 TEMPO -RA
Conditions at: LFSB (BALE/MULHOUSE , FR) observed 0900 UTC 19 August 2019
Temperature: 19.0°C (66°F)
Dewpoint: 16.0°C (61°F) [RH = 83%]
Pressure (altimeter): 30.06 inches Hg (1018.0 mb)
Winds: from the SW (220 degrees) at 6 MPH (5 knots; 2.6 m/s)
Visibility: 6 or more miles (10+ km)
Ceiling: 4300 feet AGL
Clouds: few clouds at 3000 feet AGL
scattered clouds at 4000 feet AGL
broken clouds at 4300 feet AGL
Weather: no significant weather observed at this time

METAR text: LFSB 190800Z 21006KT 9999 BKN033 BKN050 BKN190 18/17 Q1018 TEMPO 4000 -RA
Conditions at: LFSB (BALE/MULHOUSE , FR) observed 0800 UTC 19 August 2019
Temperature: 18.0°C (64°F)
Dewpoint: 17.0°C (63°F) [RH = 94%]
Pressure (altimeter): 30.06 inches Hg (1018.0 mb)
Winds: from the SSW (210 degrees) at 7 MPH (6 knots; 3.1 m/s)
Visibility: 6 or more miles (10+ km)
Ceiling: 3300 feet AGL
Clouds: broken clouds at 3300 feet AGL
broken clouds at 5000 feet AGL
broken clouds at 19000 feet AGL
Weather: no significant weather observed at this time

METAR text: LFSB 190730Z 21004KT 9999 FEW010 BKN033 BKN040 18/17 Q1018 TEMPO 4000 -RA
Conditions at: LFSB (BALE/MULHOUSE , FR) observed 0730 UTC 19 August 2019
Temperature: 18.0°C (64°F)
Dewpoint: 17.0°C (63°F) [RH = 94%]
Pressure (altimeter): 30.06 inches Hg (1018.0 mb)
Winds: from the SSW (210 degrees) at 5 MPH (4 knots; 2.1 m/s)
Visibility: 6 or more miles (10+ km)
Ceiling: 3300 feet AGL
Clouds: few clouds at 1000 feet AGL
broken clouds at 3300 feet AGL
broken clouds at 4000 feet AGL
Weather: no significant weather observed at this time

METAR text: LFSB 190711Z 20003KT 170V230 6000 FEW013 BKN033 18/17 Q1018 TEMPO 4000 -RA
Conditions at: LFSB (BALE/MULHOUSE , FR) observed 0711 UTC 19 August 2019
Temperature: 18.0°C (64°F)
Dewpoint: 17.0°C (63°F) [RH = 94%]
Pressure (altimeter): 30.06 inches Hg (1018.0 mb)
Winds: from the SSW (200 degrees) at 3 MPH (3 knots; 1.5 m/s)
Visibility: 4 miles ( 6 km)
Ceiling: 3300 feet AGL
Clouds: few clouds at 1300 feet AGL
broken clouds at 3300 feet AGL
Weather: no significant weather observed at this time

METAR text: LFSB 190700Z 21004KT 2000 -RA FEW006 BKN026 18/17 Q1018 TEMPO 2000 SHRA
Conditions at: LFSB (BALE/MULHOUSE , FR) observed 0700 UTC 19 August 2019
Temperature: 18.0°C (64°F)
Dewpoint: 17.0°C (63°F) [RH = 94%]
Pressure (altimeter): 30.06 inches Hg (1018.0 mb)
Winds: from the SSW (210 degrees) at 5 MPH (4 knots; 2.1 m/s)
Visibility: 1.24 miles (2.00 km)
Ceiling: 2600 feet AGL
Clouds: few clouds at 600 feet AGL
broken clouds at 2600 feet AGL
Weather: -RA  (light rain)

METAR text: LFSB 190630Z VRB03KT 9999 -RA FEW006 BKN026 17/17 Q1017 TEMPO 2000 SHRA
Conditions at: LFSB (BALE/MULHOUSE , FR) observed 0630 UTC 19 August 2019
Temperature: 17.0°C (63°F)
Dewpoint: 17.0°C (63°F) [RH = 100%]
Pressure (altimeter): 30.03 inches Hg (1017.0 mb)
Winds: variable direction winds at 3 MPH (3 knots; 1.5 m/s)
Visibility: 6 or more miles (10+ km)
Ceiling: 2600 feet AGL
Clouds: few clouds at 600 feet AGL
broken clouds at 2600 feet AGL
Weather: -RA  (light rain)

METAR text: LFSB 190600Z VRB02KT 9999 FEW006 FEW030TCU OVC033 18/17 Q1017 RERA TEMPO 2000 SHRA
Conditions at: LFSB (BALE/MULHOUSE , FR) observed 0600 UTC 19 August 2019
Temperature: 18.0°C (64°F)
Dewpoint: 17.0°C (63°F) [RH = 94%]
Pressure (altimeter): 30.03 inches Hg (1017.0 mb)
Winds: variable direction winds at 2 MPH (2 knots; 1.0 m/s)
Visibility: 6 or more miles (10+ km)
Ceiling: 3300 feet AGL
Clouds: few clouds at 600 feet AGL
few clouds at 3000 feet AGL
overcast cloud deck at 3300 feet AGL
Weather: no significant weather observed at this time

METAR text: LFSB 190530Z 33007KT 2100 RA SCT006 SCT014 BKN022 FEW030TCU 17/17 Q1017 TEMPO 2000 SHRA
Conditions at: LFSB (BALE/MULHOUSE , FR) observed 0530 UTC 19 August 2019
Temperature: 17.0°C (63°F)
Dewpoint: 17.0°C (63°F) [RH = 100%]
Pressure (altimeter): 30.03 inches Hg (1017.0 mb)
Winds: from the NNW (330 degrees) at 8 MPH (7 knots; 3.6 m/s)
Visibility: 1.30 miles (2.09 km)
Ceiling: 2200 feet AGL
Clouds: scattered clouds at 600 feet AGL
scattered clouds at 1400 feet AGL
broken clouds at 2200 feet AGL
few clouds at 3000 feet AGL
Weather: RA  (moderate rain)

METAR text: LFSB 190500Z 25005KT 210V290 6000 R15/1000U RA SCT006 FEW030TCU BKN050 BKN100 18/17 Q1017 TEMPO 4000 SHRA
Conditions at: LFSB (BALE/MULHOUSE , FR) observed 0500 UTC 19 August 2019
Temperature: 18.0°C (64°F)
Dewpoint: 17.0°C (63°F) [RH = 94%]
Pressure (altimeter): 30.03 inches Hg (1017.0 mb)
Winds: from the WSW (250 degrees) at 6 MPH (5 knots; 2.6 m/s)
Visibility: 4 miles ( 6 km)
Ceiling: 5000 feet AGL
Clouds: scattered clouds at 600 feet AGL
few clouds at 3000 feet AGL
broken clouds at 5000 feet AGL
broken clouds at 10000 feet AGL
Weather: RA  (moderate rain)

METAR text: LFSB 190430Z 16005KT 130V190 8000 RA FEW006 FEW030TCU BKN050 BKN100 18/18 Q1016 NOSIG
Conditions at: LFSB (BALE/MULHOUSE , FR) observed 0430 UTC 19 August 2019
Temperature: 18.0°C (64°F)
Dewpoint: 18.0°C (64°F) [RH = 100%]
Pressure (altimeter): 30.00 inches Hg (1016.0 mb)
Winds: from the SSE (160 degrees) at 6 MPH (5 knots; 2.6 m/s)
Visibility: 5 miles ( 8 km)
Ceiling: 5000 feet AGL
Clouds: few clouds at 600 feet AGL
few clouds at 3000 feet AGL
broken clouds at 5000 feet AGL
broken clouds at 10000 feet AGL
Weather: RA  (moderate rain)

METAR text: LFSB 190400Z 14005KT 110V170 9999 -RA FEW004 FEW043TCU BKN050 BKN100 18/18 Q1016 NOSIG
Conditions at: LFSB (BALE/MULHOUSE , FR) observed 0400 UTC 19 August 2019
Temperature: 18.0°C (64°F)
Dewpoint: 18.0°C (64°F) [RH = 100%]
Pressure (altimeter): 30.00 inches Hg (1016.0 mb)
Winds: from the SE (140 degrees) at 6 MPH (5 knots; 2.6 m/s)
Visibility: 6 or more miles (10+ km)
Ceiling: 5000 feet AGL
Clouds: few clouds at 400 feet AGL
few clouds at 4300 feet AGL
broken clouds at 5000 feet AGL
broken clouds at 10000 feet AGL
Weather: -RA  (light rain)

METAR text: LFSB 190330Z 12004KT 9999 -RA FEW007 FEW043TCU SCT053 BKN100 18/18 Q1016 NOSIG
Conditions at: LFSB (BALE/MULHOUSE , FR) observed 0330 UTC 19 August 2019
Temperature: 18.0°C (64°F)
Dewpoint: 18.0°C (64°F) [RH = 100%]
Pressure (altimeter): 30.00 inches Hg (1016.0 mb)
Winds: from the ESE (120 degrees) at 5 MPH (4 knots; 2.1 m/s)
Visibility: 6 or more miles (10+ km)
Ceiling: 10000 feet AGL
Clouds: few clouds at 700 feet AGL
few clouds at 4300 feet AGL
scattered clouds at 5300 feet AGL
broken clouds at 10000 feet AGL
Weather: -RA  (light rain)

METAR text: LFSB 190300Z 10003KT 9999 -RA FEW007 FEW043TCU SCT045 BKN120 18/18 Q1016 NOSIG
Conditions at: LFSB (BALE/MULHOUSE , FR) observed 0300 UTC 19 August 2019
Temperature: 18.0°C (64°F)
Dewpoint: 18.0°C (64°F) [RH = 100%]
Pressure (altimeter): 30.00 inches Hg (1016.0 mb)
Winds: from the E (100 degrees) at 3 MPH (3 knots; 1.5 m/s)
Visibility: 6 or more miles (10+ km)
Ceiling: 12000 feet AGL
Clouds: few clouds at 700 feet AGL
few clouds at 4300 feet AGL
scattered clouds at 4500 feet AGL
broken clouds at 12000 feet AGL
Weather: -RA  (light rain)

METAR text: LFSB 190230Z 17003KT 140V220 9999 -RA SCT046 FEW050TCU BKN055 BKN066 18/18 Q1017 NOSIG
Conditions at: LFSB (BALE/MULHOUSE , FR) observed 0230 UTC 19 August 2019
Temperature: 18.0°C (64°F)
Dewpoint: 18.0°C (64°F) [RH = 100%]
Pressure (altimeter): 30.03 inches Hg (1017.0 mb)
Winds: from the S (170 degrees) at 3 MPH (3 knots; 1.5 m/s)
Visibility: 6 or more miles (10+ km)
Ceiling: 5500 feet AGL
Clouds: scattered clouds at 4600 feet AGL
few clouds at 5000 feet AGL
broken clouds at 5500 feet AGL
broken clouds at 6600 feet AGL
Weather: -RA  (light rain)

METAR text: LFSB 190200Z AUTO 16004KT 9999 FEW046/// BKN066/// OVC094/// ///CB 18/18 Q1016 TEMPO 2000 TSRA
Conditions at: LFSB (BALE/MULHOUSE , FR) observed 0200 UTC 19 August 2019
Temperature: 18.0°C (64°F)
Dewpoint: 18.0°C (64°F) [RH = 100%]
Pressure (altimeter): 30.00 inches Hg (1016.0 mb)
Winds: from the SSE (160 degrees) at 5 MPH (4 knots; 2.1 m/s)
Visibility: 6 or more miles (10+ km)
Ceiling: 6600 feet AGL
Clouds: few clouds at 4600 feet AGL
broken clouds at 6600 feet AGL
overcast cloud deck at 9400 feet AGL
Weather: no significant weather observed at this time

METAR text: LFSB 190130Z AUTO VRB02KT 9999 -RA BKN041/// OVC052/// ///CB 18/18 Q1016 TEMPO 2000 TSRA
Conditions at: LFSB (BALE/MULHOUSE , FR) observed 0130 UTC 19 August 2019
Temperature: 18.0°C (64°F)
Dewpoint: 18.0°C (64°F) [RH = 100%]
Pressure (altimeter): 30.00 inches Hg (1016.0 mb)
Winds: variable direction winds at 2 MPH (2 knots; 1.0 m/s)
Visibility: 6 or more miles (10+ km)
Ceiling: 4100 feet AGL
Clouds: broken clouds at 4100 feet AGL
overcast cloud deck at 5200 feet AGL
Weather: -RA  (light rain)

METAR text: LFSB 190100Z AUTO 15003KT 110V200 9999 RA FEW017/// SCT031/// BKN037/// ///CB 19/18 Q1016 TEMPO 2000 TSRA
Conditions at: LFSB (BALE/MULHOUSE , FR) observed 0100 UTC 19 August 2019
Temperature: 19.0°C (66°F)
Dewpoint: 18.0°C (64°F) [RH = 94%]
Pressure (altimeter): 30.00 inches Hg (1016.0 mb)
Winds: from the SSE (150 degrees) at 3 MPH (3 knots; 1.5 m/s)
Visibility: 6 or more miles (10+ km)
Ceiling: 3700 feet AGL
Clouds: few clouds at 1700 feet AGL
scattered clouds at 3100 feet AGL
broken clouds at 3700 feet AGL
Weather: RA  (moderate rain)

METAR text: LFSB 190030Z AUTO 16003KT 9999 BKN037/// BKN054/// OVC100/// ///CB 18/18 Q1016 TEMPO 2000 TSRA
Conditions at: LFSB (BALE/MULHOUSE , FR) observed 0030 UTC 19 August 2019
Temperature: 18.0°C (64°F)
Dewpoint: 18.0°C (64°F) [RH = 100%]
Pressure (altimeter): 30.00 inches Hg (1016.0 mb)
Winds: from the SSE (160 degrees) at 3 MPH (3 knots; 1.5 m/s)
Visibility: 6 or more miles (10+ km)
Ceiling: 3700 feet AGL
Clouds: broken clouds at 3700 feet AGL
broken clouds at 5400 feet AGL
overcast cloud deck at 10000 feet AGL
Weather: no significant weather observed at this time

METAR text: LFSB 190000Z AUTO VRB03KT 9999 -RA FEW025/// SCT044/// OVC110/// ///CB 18/18 Q1016 TEMPO 2000 TSRA
Conditions at: LFSB (BALE/MULHOUSE , FR) observed 0000 UTC 19 August 2019
Temperature: 18.0°C (64°F)
Dewpoint: 18.0°C (64°F) [RH = 100%]
Pressure (altimeter): 30.00 inches Hg (1016.0 mb)
Winds: variable direction winds at 3 MPH (3 knots; 1.5 m/s)
Visibility: 6 or more miles (10+ km)
Ceiling: 11000 feet AGL
Clouds: few clouds at 2500 feet AGL
scattered clouds at 4400 feet AGL
overcast cloud deck at 11000 feet AGL
Weather: -RA  (light rain)

METAR text: LFSB 182330Z AUTO VRB04KT 9999 -RA FEW005/// OVC110/// ///TCU 18/18 Q1016 TEMPO 2000 TSRA SCT030CB
Conditions at: LFSB (BALE/MULHOUSE , FR) observed 2330 UTC 18 August 2019
Temperature: 18.0°C (64°F)
Dewpoint: 18.0°C (64°F) [RH = 100%]
Pressure (altimeter): 30.00 inches Hg (1016.0 mb)
Winds: variable direction winds at 5 MPH (4 knots; 2.1 m/s)
Visibility: 6 or more miles (10+ km)
Ceiling: 11000 feet AGL
Clouds: few clouds at 500 feet AGL
overcast cloud deck at 11000 feet AGL
Weather: -RA  (light rain)

METAR text: LFSB 182300Z AUTO 09008KT 9000 RA ///CB 18/18 Q1016 TEMPO 2000 TSRA
Conditions at: LFSB (BALE/MULHOUSE , FR) observed 2300 UTC 18 August 2019
Temperature: 18.0°C (64°F)
Dewpoint: 18.0°C (64°F) [RH = 100%]
Pressure (altimeter): 30.00 inches Hg (1016.0 mb)
Winds: from the E (90 degrees) at 9 MPH (8 knots; 4.1 m/s)
Visibility: 6 miles ( 9 km)
Ceiling: unknown
Clouds: missing
Weather: RA  (moderate rain)

METAR text: LFSB 182230Z AUTO 08006KT 060V130 9000 RA FEW050/// OVC100/// ///CB 18/18 Q1016 TEMPO 2000 TSRA
Conditions at: LFSB (BALE/MULHOUSE , FR) observed 2230 UTC 18 August 2019
Temperature: 18.0°C (64°F)
Dewpoint: 18.0°C (64°F) [RH = 100%]
Pressure (altimeter): 30.00 inches Hg (1016.0 mb)
Winds: from the E (80 degrees) at 7 MPH (6 knots; 3.1 m/s)
Visibility: 6 miles ( 9 km)
Ceiling: 10000 feet AGL
Clouds: few clouds at 5000 feet AGL
overcast cloud deck at 10000 feet AGL
Weather: RA  (moderate rain)

METAR text: LFSB 182200Z 14006KT 070V170 8000 RA FEW016 FEW030CB SCT066 BKN100 18/17 Q1015 TEMPO 27015G30KT 2000 TSRA
Conditions at: LFSB (BALE/MULHOUSE , FR) observed 2200 UTC 18 August 2019
Temperature: 18.0°C (64°F)
Dewpoint: 17.0°C (63°F) [RH = 94%]
Pressure (altimeter): 29.97 inches Hg (1015.0 mb)
Winds: from the SE (140 degrees) at 7 MPH (6 knots; 3.1 m/s)
Visibility: 5 miles ( 8 km)
Ceiling: 10000 feet AGL
Clouds: few clouds at 1600 feet AGL
few clouds at 3000 feet AGL
scattered clouds at 6600 feet AGL
broken clouds at 10000 feet AGL
Weather: RA  (moderate rain)

METAR text: LFSB 182130Z VRB02KT 8000 RA FEW016 FEW030CB SCT066 BKN100 17/17 Q1015 TEMPO 27015G30KT 2000 TSRA
Conditions at: LFSB (BALE/MULHOUSE , FR) observed 2130 UTC 18 August 2019
Temperature: 17.0°C (63°F)
Dewpoint: 17.0°C (63°F) [RH = 100%]
Pressure (altimeter): 29.97 inches Hg (1015.0 mb)
Winds: variable direction winds at 2 MPH (2 knots; 1.0 m/s)
Visibility: 5 miles ( 8 km)
Ceiling: 10000 feet AGL
Clouds: few clouds at 1600 feet AGL
few clouds at 3000 feet AGL
scattered clouds at 6600 feet AGL
broken clouds at 10000 feet AGL
Weather: RA  (moderate rain)

METAR text: LFSB 182100Z 16007KT 130V230 6000 SHRA FEW030CB FEW030 SCT066 BKN100 17/16 Q1014 RETSGR TEMPO 27015G30KT 2000 TSRA
Conditions at: LFSB (BALE/MULHOUSE , FR) observed 2100 UTC 18 August 2019
Temperature: 17.0°C (63°F)
Dewpoint: 16.0°C (61°F) [RH = 94%]
Pressure (altimeter): 29.94 inches Hg (1014.0 mb)
Winds: from the SSE (160 degrees) at 8 MPH (7 knots; 3.6 m/s)
Visibility: 4 miles ( 6 km)
Ceiling: 10000 feet AGL
Clouds: few clouds at 3000 feet AGL
few clouds at 3000 feet AGL
scattered clouds at 6600 feet AGL
broken clouds at 10000 feet AGL
Weather: SHRA  (rain showers)

METAR text: LFSB 182030Z VRB03KT 9999 -SHRA FEW030CB FEW030 SCT066 BKN100 17/16 Q1014 RETSGR TEMPO 27015G30KT 2000 TSRA
Conditions at: LFSB (BALE/MULHOUSE , FR) observed 2030 UTC 18 August 2019
Temperature: 17.0°C (63°F)
Dewpoint: 16.0°C (61°F) [RH = 94%]
Pressure (altimeter): 29.94 inches Hg (1014.0 mb)
Winds: variable direction winds at 3 MPH (3 knots; 1.5 m/s)
Visibility: 6 or more miles (10+ km)
Ceiling: 10000 feet AGL
Clouds: few clouds at 3000 feet AGL
few clouds at 3000 feet AGL
scattered clouds at 6600 feet AGL
broken clouds at 10000 feet AGL
Weather: -SHRA  (light rain showers)

METAR text: LFSB 182000Z 28015G38KT 230V320 0900 R15/P2000 R33/2000D +TSRA FEW040CB SCT060 BKN110 21/17 Q1014 TEMPO 28015G35KT 0700 +TSRAGR
Conditions at: LFSB (BALE/MULHOUSE , FR) observed 2000 UTC 18 August 2019
Temperature: 21.0°C (70°F)
Dewpoint: 17.0°C (63°F) [RH = 78%]
Pressure (altimeter): 29.94 inches Hg (1014.0 mb)
Winds: from the W (280 degrees) at 17 MPH (15 knots; 7.7 m/s)
gusting to 44 MPH (38 knots; 19.5 m/s)
Visibility: 0.56 miles (0.90 km)
Ceiling: 11000 feet AGL
Clouds: few clouds at 4000 feet AGL
scattered clouds at 6000 feet AGL
broken clouds at 11000 feet AGL
Weather: +TSRA  (heavy rain associated with thunderstorm(s))

METAR text: LFSB 181930Z 32012KT 9999 FEW040CB SCT060 BKN110 23/18 Q1012 RETS TEMPO 28015G35KT 2000 TSRA
Conditions at: LFSB (BALE/MULHOUSE , FR) observed 1930 UTC 18 August 2019
Temperature: 23.0°C (73°F)
Dewpoint: 18.0°C (64°F) [RH = 73%]
Pressure (altimeter): 29.88 inches Hg (1012.0 mb)
Winds: from the NW (320 degrees) at 14 MPH (12 knots; 6.2 m/s)
Visibility: 6 or more miles (10+ km)
Ceiling: 11000 feet AGL
Clouds: few clouds at 4000 feet AGL
scattered clouds at 6000 feet AGL
broken clouds at 11000 feet AGL
Weather: no significant weather observed at this time

METAR text: LFSB 181900Z 27003KT 230V300 9999 VCTS FEW040CB SCT060 BKN130 23/18 Q1011 TEMPO 28015G35KT 2000 TSRA
Conditions at: LFSB (BALE/MULHOUSE , FR) observed 1900 UTC 18 August 2019
Temperature: 23.0°C (73°F)
Dewpoint: 18.0°C (64°F) [RH = 73%]
Pressure (altimeter): 29.85 inches Hg (1011.0 mb)
Winds: from the W (270 degrees) at 3 MPH (3 knots; 1.5 m/s)
Visibility: 6 or more miles (10+ km)
Ceiling: 13000 feet AGL
Clouds: few clouds at 4000 feet AGL
scattered clouds at 6000 feet AGL
broken clouds at 13000 feet AGL
Weather: VCTS  (thunderstorm in vicinity)

METAR text: LFSB 181830Z VRB03KT 9999 FEW050CB SCT060 BKN130 25/18 Q1010 TEMPO 28015G35KT 2000 TSRA
Conditions at: LFSB (BALE/MULHOUSE , FR) observed 1830 UTC 18 August 2019
Temperature: 25.0°C (77°F)
Dewpoint: 18.0°C (64°F) [RH = 65%]
Pressure (altimeter): 29.82 inches Hg (1010.0 mb)
Winds: variable direction winds at 3 MPH (3 knots; 1.5 m/s)
Visibility: 6 or more miles (10+ km)
Ceiling: 13000 feet AGL
Clouds: few clouds at 5000 feet AGL
scattered clouds at 6000 feet AGL
broken clouds at 13000 feet AGL
Weather: no significant weather observed at this time

METAR text: LFSB 181800Z 36003KT 330V040 9999 FEW050CB SCT093 BKN200 27/17 Q1010 TEMPO VRB15G35KT 2000 TSRA
Conditions at: LFSB (BALE/MULHOUSE , FR) observed 1800 UTC 18 August 2019
Temperature: 27.0°C (81°F)
Dewpoint: 17.0°C (63°F) [RH = 54%]
Pressure (altimeter): 29.82 inches Hg (1010.0 mb)
Winds: from the N (360 degrees) at 3 MPH (3 knots; 1.5 m/s)
Visibility: 6 or more miles (10+ km)
Ceiling: 20000 feet AGL
Clouds: few clouds at 5000 feet AGL
scattered clouds at 9300 feet AGL
broken clouds at 20000 feet AGL
Weather: no significant weather observed at this time

METAR text: LFSB 181730Z 32007KT 9999 FEW053 SCT093 BKN200 27/18 Q1010 NOSIG
Conditions at: LFSB (BALE/MULHOUSE , FR) observed 1730 UTC 18 August 2019
Temperature: 27.0°C (81°F)
Dewpoint: 18.0°C (64°F) [RH = 58%]
Pressure (altimeter): 29.82 inches Hg (1010.0 mb)
Winds: from the NW (320 degrees) at 8 MPH (7 knots; 3.6 m/s)
Visibility: 6 or more miles (10+ km)
Ceiling: 20000 feet AGL
Clouds: few clouds at 5300 feet AGL
scattered clouds at 9300 feet AGL
broken clouds at 20000 feet AGL
Weather: no significant weather observed at this time

METAR text: LFSB 181700Z 29007KT 9999 FEW055 SCT093 BKN200 28/17 Q1011 NOSIG
Conditions at: LFSB (BALE/MULHOUSE , FR) observed 1700 UTC 18 August 2019
Temperature: 28.0°C (82°F)
Dewpoint: 17.0°C (63°F) [RH = 51%]
Pressure (altimeter): 29.85 inches Hg (1011.0 mb)
Winds: from the WNW (290 degrees) at 8 MPH (7 knots; 3.6 m/s)
Visibility: 6 or more miles (10+ km)
Ceiling: 20000 feet AGL
Clouds: few clouds at 5500 feet AGL
scattered clouds at 9300 feet AGL
broken clouds at 20000 feet AGL
Weather: no significant weather observed at this time

METAR text: LFSB 181630Z 28007KT 240V310 9999 FEW055 SCT093 29/17 Q1010 NOSIG
Conditions at: LFSB (BALE/MULHOUSE , FR) observed 1630 UTC 18 August 2019
Temperature: 29.0°C (84°F)
Dewpoint: 17.0°C (63°F) [RH = 48%]
Pressure (altimeter): 29.82 inches Hg (1010.0 mb)
Winds: from the W (280 degrees) at 8 MPH (7 knots; 3.6 m/s)
Visibility: 6 or more miles (10+ km)
Ceiling: at least 12,000 feet AGL
Clouds: few clouds at 5500 feet AGL
scattered clouds at 9300 feet AGL
Weather: no significant weather observed at this time

METAR text: LFSB 181600Z 29005KT 270V340 9999 FEW055 BKN093 29/17 Q1010 NOSIG
Conditions at: LFSB (BALE/MULHOUSE , FR) observed 1600 UTC 18 August 2019
Temperature: 29.0°C (84°F)
Dewpoint: 17.0°C (63°F) [RH = 48%]
Pressure (altimeter): 29.82 inches Hg (1010.0 mb)
Winds: from the WNW (290 degrees) at 6 MPH (5 knots; 2.6 m/s)
Visibility: 6 or more miles (10+ km)
Ceiling: 9300 feet AGL
Clouds: few clouds at 5500 feet AGL
broken clouds at 9300 feet AGL
Weather: no significant weather observed at this time

METAR text: LFSB 181530Z 26006KT 240V300 9999 FEW055 SCT110 28/17 Q1011 NOSIG
Conditions at: LFSB (BALE/MULHOUSE , FR) observed 1530 UTC 18 August 2019
Temperature: 28.0°C (82°F)
Dewpoint: 17.0°C (63°F) [RH = 51%]
Pressure (altimeter): 29.85 inches Hg (1011.0 mb)
Winds: from the W (260 degrees) at 7 MPH (6 knots; 3.1 m/s)
Visibility: 6 or more miles (10+ km)
Ceiling: at least 12,000 feet AGL
Clouds: few clouds at 5500 feet AGL
scattered clouds at 11000 feet AGL
Weather: no significant weather observed at this time

METAR text: LFSB 181500Z 28009KT 9999 FEW055 SCT120 28/17 Q1011 NOSIG
Conditions at: LFSB (BALE/MULHOUSE , FR) observed 1500 UTC 18 August 2019
Temperature: 28.0°C (82°F)
Dewpoint: 17.0°C (63°F) [RH = 51%]
Pressure (altimeter): 29.85 inches Hg (1011.0 mb)
Winds: from the W (280 degrees) at 10 MPH (9 knots; 4.6 m/s)
Visibility: 6 or more miles (10+ km)
Ceiling: at least 12,000 feet AGL
Clouds: few clouds at 5500 feet AGL
scattered clouds at 12000 feet AGL
Weather: no significant weather observed at this time

METAR text: LFSB 181430Z 27013KT 220V290 9999 FEW055 SCT120 30/17 Q1010 NOSIG
Conditions at: LFSB (BALE/MULHOUSE , FR) observed 1430 UTC 18 August 2019
Temperature: 30.0°C (86°F)
Dewpoint: 17.0°C (63°F) [RH = 46%]
Pressure (altimeter): 29.82 inches Hg (1010.0 mb)
Winds: from the W (270 degrees) at 15 MPH (13 knots; 6.7 m/s)
Visibility: 6 or more miles (10+ km)
Ceiling: at least 12,000 feet AGL
Clouds: few clouds at 5500 feet AGL
scattered clouds at 12000 feet AGL
Weather: no significant weather observed at this time

METAR text: LFSB 181400Z 30010KT 270V340 9999 FEW060CB BKN120 30/16 Q1010 NOSIG
Conditions at: LFSB (BALE/MULHOUSE , FR) observed 1400 UTC 18 August 2019
Temperature: 30.0°C (86°F)
Dewpoint: 16.0°C (61°F) [RH = 43%]
Pressure (altimeter): 29.82 inches Hg (1010.0 mb)
Winds: from the WNW (300 degrees) at 12 MPH (10 knots; 5.1 m/s)
Visibility: 6 or more miles (10+ km)
Ceiling: 12000 feet AGL
Clouds: few clouds at 6000 feet AGL
broken clouds at 12000 feet AGL
Weather: no significant weather observed at this time

METAR text: LFSB 181330Z 29011KT 260V320 9999 FEW060CB SCT120 31/16 Q1010 NOSIG
Conditions at: LFSB (BALE/MULHOUSE , FR) observed 1330 UTC 18 August 2019
Temperature: 31.0°C (88°F)
Dewpoint: 16.0°C (61°F) [RH = 40%]
Pressure (altimeter): 29.82 inches Hg (1010.0 mb)
Winds: from the WNW (290 degrees) at 13 MPH (11 knots; 5.7 m/s)
Visibility: 6 or more miles (10+ km)
Ceiling: at least 12,000 feet AGL
Clouds: few clouds at 6000 feet AGL
scattered clouds at 12000 feet AGL
Weather: no significant weather observed at this time

METAR text: LFSB 181300Z 30009KT 260V320 9999 FEW060TCU SCT120 31/16 Q1010 NOSIG
Conditions at: LFSB (BALE/MULHOUSE , FR) observed 1300 UTC 18 August 2019
Temperature: 31.0°C (88°F)
Dewpoint: 16.0°C (61°F) [RH = 40%]
Pressure (altimeter): 29.82 inches Hg (1010.0 mb)
Winds: from the WNW (300 degrees) at 10 MPH (9 knots; 4.6 m/s)
Visibility: 6 or more miles (10+ km)
Ceiling: at least 12,000 feet AGL
Clouds: few clouds at 6000 feet AGL
scattered clouds at 12000 feet AGL
Weather: no significant weather observed at this time

METAR text: LFSB 181230Z 29008KT 270V330 CAVOK 30/17 Q1010 NOSIG
Conditions at: LFSB (BALE/MULHOUSE , FR) observed 1230 UTC 18 August 2019
Temperature: 30.0°C (86°F)
Dewpoint: 17.0°C (63°F) [RH = 46%]
Pressure (altimeter): 29.82 inches Hg (1010.0 mb)
Winds: from the WNW (290 degrees) at 9 MPH (8 knots; 4.1 m/s)
Visibility: 6 or more miles (10+ km)
Ceiling: ceiling and visibility are OK
Clouds: unknown
Weather: no significant weather observed at this time

METAR text: LFSB 181200Z 29007KT 260V330 CAVOK 30/17 Q1009 NOSIG
Conditions at: LFSB (BALE/MULHOUSE , FR) observed 1200 UTC 18 August 2019
Temperature: 30.0°C (86°F)
Dewpoint: 17.0°C (63°F) [RH = 46%]
Pressure (altimeter): 29.79 inches Hg (1009.0 mb)
Winds: from the WNW (290 degrees) at 8 MPH (7 knots; 3.6 m/s)
Visibility: 6 or more miles (10+ km)
Ceiling: ceiling and visibility are OK
Clouds: unknown
Weather: no significant weather observed at this time

METAR text: LFSB 181130Z 33004KT 300V030 CAVOK 30/15 Q1009 NOSIG
Conditions at: LFSB (BALE/MULHOUSE , FR) observed 1130 UTC 18 August 2019
Temperature: 30.0°C (86°F)
Dewpoint: 15.0°C (59°F) [RH = 40%]
Pressure (altimeter): 29.79 inches Hg (1009.0 mb)
Winds: from the NNW (330 degrees) at 5 MPH (4 knots; 2.1 m/s)
Visibility: 6 or more miles (10+ km)
Ceiling: ceiling and visibility are OK
Clouds: unknown
Weather: no significant weather observed at this time

METAR text: LFSB 181100Z VRB02KT CAVOK 30/16 Q1010 NOSIG
Conditions at: LFSB (BALE/MULHOUSE , FR) observed 1100 UTC 18 August 2019
Temperature: 30.0°C (86°F)
Dewpoint: 16.0°C (61°F) [RH = 43%]
Pressure (altimeter): 29.82 inches Hg (1010.0 mb)
Winds: variable direction winds at 2 MPH (2 knots; 1.0 m/s)
Visibility: 6 or more miles (10+ km)
Ceiling: ceiling and visibility are OK
Clouds: unknown
Weather: no significant weather observed at this time

METAR text: LFSB 181030Z 07003KT 350V120 CAVOK 29/16 Q1010 NOSIG
Conditions at: LFSB (BALE/MULHOUSE , FR) observed 1030 UTC 18 August 2019
Temperature: 29.0°C (84°F)
Dewpoint: 16.0°C (61°F) [RH = 45%]
Pressure (altimeter): 29.82 inches Hg (1010.0 mb)
Winds: from the ENE (70 degrees) at 3 MPH (3 knots; 1.5 m/s)
Visibility: 6 or more miles (10+ km)
Ceiling: ceiling and visibility are OK
Clouds: unknown
Weather: no significant weather observed at this time

METAR text: LFSB 181000Z 08003KT 010V170 CAVOK 28/17 Q1010 NOSIG
Conditions at: LFSB (BALE/MULHOUSE , FR) observed 1000 UTC 18 August 2019
Temperature: 28.0°C (82°F)
Dewpoint: 17.0°C (63°F) [RH = 51%]
Pressure (altimeter): 29.82 inches Hg (1010.0 mb)
Winds: from the E (80 degrees) at 3 MPH (3 knots; 1.5 m/s)
Visibility: 6 or more miles (10+ km)
Ceiling: ceiling and visibility are OK
Clouds: unknown
Weather: no significant weather observed at this time

METAR text: LFSB 180930Z 16003KT 070V200 CAVOK 27/18 Q1010 NOSIG
Conditions at: LFSB (BALE/MULHOUSE , FR) observed 0930 UTC 18 August 2019
Temperature: 27.0°C (81°F)
Dewpoint: 18.0°C (64°F) [RH = 58%]
Pressure (altimeter): 29.82 inches Hg (1010.0 mb)
Winds: from the SSE (160 degrees) at 3 MPH (3 knots; 1.5 m/s)
Visibility: 6 or more miles (10+ km)
Ceiling: ceiling and visibility are OK
Clouds: unknown
Weather: no significant weather observed at this time

METAR text: LFSB 180900Z 11004KT 040V180 CAVOK 26/17 Q1011 NOSIG
Conditions at: LFSB (BALE/MULHOUSE , FR) observed 0900 UTC 18 August 2019
Temperature: 26.0°C (79°F)
Dewpoint: 17.0°C (63°F) [RH = 58%]
Pressure (altimeter): 29.85 inches Hg (1011.0 mb)
Winds: from the ESE (110 degrees) at 5 MPH (4 knots; 2.1 m/s)
Visibility: 6 or more miles (10+ km)
Ceiling: ceiling and visibility are OK
Clouds: unknown
Weather: no significant weather observed at this time

METAR text: LFSB 180830Z 16006KT 120V180 CAVOK 24/17 Q1011 NOSIG
Conditions at: LFSB (BALE/MULHOUSE , FR) observed 0830 UTC 18 August 2019
Temperature: 24.0°C (75°F)
Dewpoint: 17.0°C (63°F) [RH = 65%]
Pressure (altimeter): 29.85 inches Hg (1011.0 mb)
Winds: from the SSE (160 degrees) at 7 MPH (6 knots; 3.1 m/s)
Visibility: 6 or more miles (10+ km)
Ceiling: ceiling and visibility are OK
Clouds: unknown
Weather: no significant weather observed at this time

METAR text: LFSB 180800Z 16006KT 130V190 CAVOK 23/17 Q1011 NOSIG
Conditions at: LFSB (BALE/MULHOUSE , FR) observed 0800 UTC 18 August 2019
Temperature: 23.0°C (73°F)
Dewpoint: 17.0°C (63°F) [RH = 69%]
Pressure (altimeter): 29.85 inches Hg (1011.0 mb)
Winds: from the SSE (160 degrees) at 7 MPH (6 knots; 3.1 m/s)
Visibility: 6 or more miles (10+ km)
Ceiling: ceiling and visibility are OK
Clouds: unknown
Weather: no significant weather observed at this time

METAR text: LFSB 180730Z 16005KT 130V200 CAVOK 22/16 Q1011 NOSIG
Conditions at: LFSB (BALE/MULHOUSE , FR) observed 0730 UTC 18 August 2019
Temperature: 22.0°C (72°F)
Dewpoint: 16.0°C (61°F) [RH = 69%]
Pressure (altimeter): 29.85 inches Hg (1011.0 mb)
Winds: from the SSE (160 degrees) at 6 MPH (5 knots; 2.6 m/s)
Visibility: 6 or more miles (10+ km)
Ceiling: ceiling and visibility are OK
Clouds: unknown
Weather: no significant weather observed at this time

Forecast for: AMD
Text: TAF AMD LFSB 191758Z 1918/2018 VRB03KT 9999 FEW040 BKN055
Forecast period: 1800 to 2200 UTC 19 August 2019
Forecast type: FROM: standard forecast or significant change
Winds: variable direction winds at 3 MPH (3 knots; 1.5 m/s)
Visibility: 6 or more miles 10+ km)
Ceiling: 5500 feet AGL
Clouds: few clouds at 4000 feet AGL
broken clouds at 5500 feet AGL
Weather: no significant weather forecast for this period
Text: TEMPO 1918/1919 FEW046CB
Forecast period: 1800 to 1900 UTC 19 August 2019
Forecast type: TEMPORARY: The following changes expected for less than half the time period
Visibility: missing
Ceiling: at least 12,000 feet AGL
Clouds: few clouds at 4600 feet AGL
Weather: no significant weather forecast for this period
Text: BECMG 1922/1924 32006KT
Forecast period: 2200 UTC 19 August 2019 to 1800 UTC 20 August 2019
Forecast type: BECOMING: Conditions expected to become as follows by 0000 UTC 20 August 2019
Winds: from the NW (320 degrees) at 7 MPH (6 knots; 3.1 m/s)
Visibility: 6 or more miles 10+ km)
Ceiling: 5500 feet AGL
Clouds: few clouds at 4000 feet AGL
broken clouds at 5500 feet AGL
Weather: no significant weather forecast for this period
Text: TEMPO 2008/2018 3000 RA BKN015
Forecast period: 0800 to 1800 UTC 20 August 2019
Forecast type: TEMPORARY: The following changes expected for less than half the time period
Visibility: 1.86 miles (2.99 km)
Ceiling: 1500 feet AGL
Clouds: broken clouds at 1500 feet AGL
Weather: RA  (moderate rain)